Time,TemperatureF,DewpointF,PressureIn,WindDirection,WindDirectionDegrees,WindSpeedMPH,WindSpeedGustMPH,Humidity,HourlyPrecipIn,Conditions,Clouds,dailyrainin,SoftwareType,DateUTC
2013-11-18 00:04:00,50.1,30.6,30.00,ESE,105,0.0,2.0,47,0.00,,,0.00,Wunderground v.1.15,2013-11-18 06:04:00,
2013-11-18 00:09:00,50.1,30.6,30.01,East,93,0.0,2.0,47,0.00,,,0.00,Wunderground v.1.15,2013-11-18 06:09:00,
2013-11-18 00:14:00,50.0,31.1,30.01,SW,219,0.0,2.0,48,0.00,,,0.00,Wunderground v.1.15,2013-11-18 06:14:00,
2013-11-18 00:19:00,49.6,31.2,30.01,SW,236,0.0,2.0,49,0.00,,,0.00,Wunderground v.1.15,2013-11-18 06:19:00,
2013-11-18 00:24:00,49.5,31.1,30.01,WSW,238,0.0,2.0,49,0.00,,,0.00,Wunderground v.1.15,2013-11-18 06:24:00,
2013-11-18 00:29:00,49.4,31.5,30.01,SSW,208,0.0,2.0,50,0.00,,,0.00,Wunderground v.1.15,2013-11-18 06:29:00,
2013-11-18 00:34:00,49.2,31.3,30.01,SSW,194,0.0,2.0,50,0.00,,,0.00,Wunderground v.1.15,2013-11-18 06:34:00,
2013-11-18 00:39:00,49.0,31.6,30.01,SW,218,0.0,2.0,51,0.00,,,0.00,Wunderground v.1.15,2013-11-18 06:39:00,
2013-11-18 00:44:00,49.0,32.1,30.01,West,263,1.0,2.0,52,0.00,,,0.00,Wunderground v.1.15,2013-11-18 06:44:00,
2013-11-18 00:54:00,48.5,31.7,30.01,West,276,0.0,2.0,52,0.00,,,0.00,Wunderground v.1.15,2013-11-18 06:54:00,
2013-11-18 00:59:00,48.3,31.9,30.01,WNW,298,0.0,2.0,53,0.00,,,0.00,Wunderground v.1.15,2013-11-18 06:59:00,
2013-11-18 01:04:00,48.3,31.9,30.01,WSW,252,0.0,2.0,53,0.00,,,0.00,Wunderground v.1.15,2013-11-18 07:04:00,
2013-11-18 01:09:00,48.1,31.8,30.01,SE,128,0.0,2.0,53,0.00,,,0.00,Wunderground v.1.15,2013-11-18 07:09:00,
2013-11-18 01:14:00,47.6,31.8,30.01,SE,128,0.0,2.0,54,0.00,,,0.00,Wunderground v.1.15,2013-11-18 07:14:00,
2013-11-18 01:19:00,46.9,31.6,30.01,WSW,252,0.0,2.0,55,0.00,,,0.00,Wunderground v.1.15,2013-11-18 07:19:00,
2013-11-18 01:29:00,46.9,32.0,30.01,West,277,0.0,2.0,56,0.00,,,0.00,Wunderground v.1.15,2013-11-18 07:29:00,
2013-11-18 01:34:00,46.6,32.2,30.01,South,186,0.0,2.0,57,0.00,,,0.00,Wunderground v.1.15,2013-11-18 07:34:00,
2013-11-18 01:39:00,46.3,32.3,30.01,WSW,255,0.0,2.0,58,0.00,,,0.00,Wunderground v.1.15,2013-11-18 07:39:00,
2013-11-18 01:44:00,46.0,32.5,30.01,West,267,0.0,2.0,59,0.00,,,0.00,Wunderground v.1.15,2013-11-18 07:44:00,
2013-11-18 01:49:00,45.6,32.1,30.01,West,267,0.0,2.0,59,0.00,,,0.00,Wunderground v.1.15,2013-11-18 07:49:00,
2013-11-18 01:59:00,45.2,32.9,30.01,WSW,249,0.0,2.0,62,0.00,,,0.00,Wunderground v.1.15,2013-11-18 07:59:00,
2013-11-18 02:09:00,44.5,32.3,30.02,WSW,250,0.0,2.0,62,0.00,,,0.00,Wunderground v.1.15,2013-11-18 08:09:00,
2013-11-18 02:19:00,44.1,33.1,30.02,WSW,252,0.0,2.0,65,0.00,,,0.00,Wunderground v.1.15,2013-11-18 08:19:00,
2013-11-18 02:24:00,43.7,32.7,30.03,WSW,246,0.0,2.0,65,0.00,,,0.00,Wunderground v.1.15,2013-11-18 08:24:00,
2013-11-18 02:34:00,43.7,33.5,30.03,WSW,244,0.0,2.0,67,0.00,,,0.00,Wunderground v.1.15,2013-11-18 08:34:00,
2013-11-18 02:44:00,43.4,33.2,30.04,WSW,244,0.0,2.0,67,0.00,,,0.00,Wunderground v.1.15,2013-11-18 08:44:00,
2013-11-18 02:54:00,42.7,33.6,30.05,WSW,250,0.0,2.0,70,0.00,,,0.00,Wunderground v.1.15,2013-11-18 08:54:00,
2013-11-18 03:04:00,40.9,32.6,30.05,WSW,250,0.0,2.0,72,0.00,,,0.00,Wunderground v.1.15,2013-11-18 09:04:00,
2013-11-18 03:19:00,41.3,33.3,30.06,WSW,250,0.0,2.0,73,0.00,,,0.00,Wunderground v.1.15,2013-11-18 09:19:00,
2013-11-18 03:29:00,40.3,33.0,30.06,WSW,250,0.0,2.0,75,0.00,,,0.00,Wunderground v.1.15,2013-11-18 09:29:00,
2013-11-18 03:39:00,40.2,33.6,30.06,WSW,250,0.0,2.0,77,0.00,,,0.00,Wunderground v.1.15,2013-11-18 09:39:00,
2013-11-18 03:49:00,39.7,33.1,30.06,WSW,250,0.0,2.0,77,0.00,,,0.00,Wunderground v.1.15,2013-11-18 09:49:00,
2013-11-18 03:54:00,39.5,33.2,30.06,WSW,250,0.0,2.0,78,0.00,,,0.00,Wunderground v.1.15,2013-11-18 09:54:00,
2013-11-18 04:04:00,40.0,33.7,30.06,WSW,250,0.0,2.0,78,0.00,,,0.00,Wunderground v.1.15,2013-11-18 10:04:00,
2013-11-18 04:14:00,39.6,33.0,30.05,WSW,250,0.0,2.0,77,0.00,,,0.00,Wunderground v.1.15,2013-11-18 10:14:00,
2013-11-18 04:24:00,38.3,33.0,30.06,WSW,250,0.0,2.0,81,0.00,,,0.00,Wunderground v.1.15,2013-11-18 10:24:00,
2013-11-18 04:34:00,37.2,32.2,30.07,WSW,250,0.0,2.0,82,0.00,,,0.00,Wunderground v.1.15,2013-11-18 10:34:00,
2013-11-18 04:44:00,36.8,32.4,30.08,WSW,250,0.0,2.0,84,0.00,,,0.00,Wunderground v.1.15,2013-11-18 10:44:00,
2013-11-18 04:54:00,37.7,33.6,30.08,NW,318,0.0,2.0,85,0.00,,,0.00,Wunderground v.1.15,2013-11-18 10:54:00,
2013-11-18 04:59:00,39.0,34.0,30.07,WNW,293,0.0,2.0,82,0.00,,,0.00,Wunderground v.1.15,2013-11-18 10:59:00,
2013-11-18 05:09:00,39.2,33.5,30.10,WSW,258,0.0,2.0,80,0.00,,,0.00,Wunderground v.1.15,2013-11-18 11:09:00,
2013-11-18 05:19:00,37.5,32.5,30.11,ESE,117,0.0,2.0,82,0.00,,,0.00,Wunderground v.1.15,2013-11-18 11:19:00,
2013-11-18 05:29:00,36.4,32.0,30.11,North,352,0.0,2.0,84,0.00,,,0.00,Wunderground v.1.15,2013-11-18 11:29:00,
2013-11-18 05:34:00,36.1,31.7,30.12,North,352,0.0,2.0,84,0.00,,,0.00,Wunderground v.1.15,2013-11-18 11:34:00,
2013-11-18 05:39:00,35.7,31.9,30.13,North,352,0.0,2.0,86,0.00,,,0.00,Wunderground v.1.15,2013-11-18 11:39:00,
2013-11-18 05:49:00,36.5,33.3,30.13,North,352,0.0,2.0,88,0.00,,,0.00,Wunderground v.1.15,2013-11-18 11:49:00,
2013-11-18 05:59:00,35.7,32.2,30.14,North,353,0.0,2.0,87,0.00,,,0.00,Wunderground v.1.15,2013-11-18 11:59:00,
2013-11-18 06:09:00,36.3,33.4,30.14,NNW,330,0.0,2.0,89,0.00,,,0.00,Wunderground v.1.15,2013-11-18 12:09:00,
2013-11-18 06:19:00,36.0,32.2,30.15,NNW,330,0.0,2.0,86,0.00,,,0.00,Wunderground v.1.15,2013-11-18 12:19:00,
2013-11-18 06:29:00,35.3,32.7,30.16,NNW,330,0.0,2.0,90,0.00,,,0.00,Wunderground v.1.15,2013-11-18 12:29:00,
2013-11-18 06:39:00,35.3,32.7,30.16,NNW,330,0.0,2.0,90,0.00,,,0.00,Wunderground v.1.15,2013-11-18 12:39:00,
2013-11-18 06:49:00,35.9,33.3,30.17,NNW,330,0.0,2.0,90,0.00,,,0.00,Wunderground v.1.15,2013-11-18 12:49:00,
2013-11-18 06:59:00,35.2,32.3,30.18,NNW,330,0.0,2.0,89,0.00,,,0.00,Wunderground v.1.15,2013-11-18 12:59:00,
2013-11-18 07:09:00,34.6,32.0,30.18,NNW,330,0.0,2.0,90,0.00,,,0.00,Wunderground v.1.15,2013-11-18 13:09:00,
2013-11-18 07:19:00,34.5,32.4,30.19,NNW,330,0.0,2.0,92,0.00,,,0.00,Wunderground v.1.15,2013-11-18 13:19:00,
2013-11-18 07:29:00,36.5,33.6,30.19,NNW,330,0.0,2.0,89,0.00,,,0.00,Wunderground v.1.15,2013-11-18 13:29:00,
2013-11-18 07:34:00,37.4,34.2,30.19,NNW,330,0.0,2.0,88,0.00,,,0.00,Wunderground v.1.15,2013-11-18 13:34:00,
2013-11-18 07:44:00,40.9,36.4,30.19,NNW,330,0.0,2.0,84,0.00,,,0.00,Wunderground v.1.15,2013-11-18 13:44:00,
2013-11-18 07:54:00,42.2,35.5,30.19,NNW,330,0.0,2.0,77,0.00,,,0.00,Wunderground v.1.15,2013-11-18 13:54:00,
2013-11-18 08:04:00,42.4,36.0,30.20,East,83,0.0,2.0,78,0.00,,,0.00,Wunderground v.1.15,2013-11-18 14:04:00,
2013-11-18 08:14:00,43.8,36.4,30.20,East,84,0.0,2.0,75,0.00,,,0.00,Wunderground v.1.15,2013-11-18 14:14:00,
2013-11-18 08:19:00,44.4,36.3,30.20,East,91,0.0,2.0,73,0.00,,,0.00,Wunderground v.1.15,2013-11-18 14:19:00,
2013-11-18 08:24:00,44.8,36.3,30.21,SSW,203,0.0,2.0,72,0.00,,,0.00,Wunderground v.1.15,2013-11-18 14:24:00,
2013-11-18 08:34:00,45.2,36.7,30.21,ESE,121,1.0,2.0,72,0.00,,,0.00,Wunderground v.1.15,2013-11-18 14:34:00,
2013-11-18 08:39:00,45.6,37.1,30.22,SSW,205,0.0,2.0,72,0.00,,,0.00,Wunderground v.1.15,2013-11-18 14:39:00,
2013-11-18 08:49:00,46.7,37.1,30.22,ESE,106,1.0,2.0,69,0.00,,,0.00,Wunderground v.1.15,2013-11-18 14:49:00,
2013-11-18 08:59:00,48.1,38.0,30.23,South,179,0.0,2.0,68,0.00,,,0.00,Wunderground v.1.15,2013-11-18 14:59:00,
2013-11-18 09:04:00,48.7,38.2,30.23,ESE,114,0.0,2.0,67,0.00,,,0.00,Wunderground v.1.15,2013-11-18 15:04:00,
2013-11-18 09:09:00,49.3,39.2,30.24,WSW,248,0.0,3.0,68,0.00,,,0.00,Wunderground v.1.15,2013-11-18 15:09:00,
2013-11-18 09:14:00,49.5,39.0,30.24,West,273,1.0,3.0,67,0.00,,,0.00,Wunderground v.1.15,2013-11-18 15:14:00,
2013-11-18 09:24:00,49.8,38.1,30.25,SW,217,1.0,2.0,64,0.00,,,0.00,Wunderground v.1.15,2013-11-18 15:24:00,
2013-11-18 09:29:00,50.4,39.1,30.24,SW,232,1.0,1.0,65,0.00,,,0.00,Wunderground v.1.15,2013-11-18 15:29:00,
2013-11-18 09:39:00,50.8,38.2,30.25,West,260,2.0,2.0,62,0.00,,,0.00,Wunderground v.1.15,2013-11-18 15:39:00,
2013-11-18 09:49:00,50.8,37.8,30.25,SW,218,2.0,2.0,61,0.00,,,0.00,Wunderground v.1.15,2013-11-18 15:49:00,
2013-11-18 09:59:00,50.8,38.7,30.25,WSW,241,1.0,3.0,63,0.00,,,0.00,Wunderground v.1.15,2013-11-18 15:59:00,
2013-11-18 10:04:00,51.0,38.0,30.26,WSW,256,2.0,3.0,61,0.00,,,0.00,Wunderground v.1.15,2013-11-18 16:04:00,
2013-11-18 10:09:00,51.0,38.0,30.26,SSW,198,3.0,3.0,61,0.00,,,0.00,Wunderground v.1.15,2013-11-18 16:09:00,
2013-11-18 10:14:00,51.3,38.7,30.26,West,267,2.0,3.0,62,0.00,,,0.00,Wunderground v.1.15,2013-11-18 16:14:00,
2013-11-18 10:24:00,52.1,38.2,30.26,SSW,208,2.0,7.0,59,0.00,,,0.00,Wunderground v.1.15,2013-11-18 16:24:00,
2013-11-18 10:34:00,52.4,38.0,30.25,West,262,2.0,3.0,58,0.00,,,0.00,Wunderground v.1.15,2013-11-18 16:34:00,
2013-11-18 10:39:00,53.1,36.4,30.25,WNW,297,2.0,5.0,53,0.00,,,0.00,Wunderground v.1.15,2013-11-18 16:39:00,
2013-11-18 10:49:00,52.5,35.4,30.25,NNW,347,3.0,3.0,52,0.00,,,0.00,Wunderground v.1.15,2013-11-18 16:49:00,
2013-11-18 10:54:00,52.6,35.5,30.25,WNW,297,4.0,6.0,52,0.00,,,0.00,Wunderground v.1.15,2013-11-18 16:54:00,
2013-11-18 11:04:00,53.4,35.7,30.25,West,263,3.0,4.0,51,0.00,,,0.00,Wunderground v.1.15,2013-11-18 17:04:00,
2013-11-18 11:14:00,53.7,35.0,30.25,South,173,3.0,5.0,49,0.00,,,0.00,Wunderground v.1.15,2013-11-18 17:14:00,
2013-11-18 11:19:00,53.9,34.1,30.25,West,276,3.0,3.0,47,0.00,,,0.00,Wunderground v.1.15,2013-11-18 17:19:00,
2013-11-18 11:24:00,54.1,33.8,30.25,West,272,4.0,5.0,46,0.00,,,0.00,Wunderground v.1.15,2013-11-18 17:24:00,
2013-11-18 11:29:00,54.4,33.5,30.25,WSW,248,3.0,3.0,45,0.00,,,0.00,Wunderground v.1.15,2013-11-18 17:29:00,
2013-11-18 11:39:00,55.3,33.7,30.25,West,273,2.0,2.0,44,0.00,,,0.00,Wunderground v.1.15,2013-11-18 17:39:00,
2013-11-18 11:44:00,55.4,33.8,30.25,WNW,291,2.0,2.0,44,0.00,,,0.00,Wunderground v.1.15,2013-11-18 17:44:00,
2013-11-18 11:54:00,55.9,32.5,30.25,SW,219,1.0,4.0,41,0.00,,,0.00,Wunderground v.1.15,2013-11-18 17:54:00,
2013-11-18 11:59:00,56.4,32.4,30.25,SW,221,2.0,5.0,40,0.00,,,0.00,Wunderground v.1.15,2013-11-18 17:59:00,
2013-11-18 12:04:00,56.1,33.3,30.25,SSW,210,2.0,5.0,42,0.00,,,0.00,Wunderground v.1.15,2013-11-18 18:04:00,
2013-11-18 12:09:00,56.9,33.4,30.25,SW,235,2.0,2.0,41,0.00,,,0.00,Wunderground v.1.15,2013-11-18 18:09:00,
2013-11-18 12:19:00,57.3,33.8,30.24,SSE,167,1.0,1.0,41,0.00,,,0.00,Wunderground v.1.15,2013-11-18 18:19:00,
2013-11-18 12:29:00,58.0,31.8,30.24,WSW,245,2.0,5.0,37,0.00,,,0.00,Wunderground v.1.15,2013-11-18 18:29:00,
2013-11-18 12:39:00,57.7,30.9,30.24,SSW,204,3.0,4.0,36,0.00,,,0.00,Wunderground v.1.15,2013-11-18 18:39:00,
2013-11-18 12:49:00,57.7,31.6,30.24,West,260,3.0,3.0,37,0.00,,,0.00,Wunderground v.1.15,2013-11-18 18:49:00,
2013-11-18 12:54:00,58.1,31.3,30.24,NW,311,2.0,3.0,36,0.00,,,0.00,Wunderground v.1.15,2013-11-18 18:54:00,
2013-11-18 13:04:00,57.4,29.9,30.24,West,264,3.0,3.0,35,0.00,,,0.00,Wunderground v.1.15,2013-11-18 19:04:00,
2013-11-18 13:14:00,58.3,30.7,30.23,NW,316,1.0,2.0,35,0.00,,,0.00,Wunderground v.1.15,2013-11-18 19:14:00,
2013-11-18 13:24:00,58.8,30.5,30.23,WNW,291,2.0,2.0,34,0.00,,,0.00,Wunderground v.1.15,2013-11-18 19:24:00,
2013-11-18 13:29:00,59.1,28.5,30.24,SSE,159,2.0,2.0,31,0.00,,,0.00,Wunderground v.1.15,2013-11-18 19:29:00,
2013-11-18 13:39:00,58.3,27.8,30.23,SSW,212,2.0,2.0,31,0.00,,,0.00,Wunderground v.1.15,2013-11-18 19:39:00,
2013-11-18 13:44:00,58.2,29.2,30.23,WSW,258,2.0,2.0,33,0.00,,,0.00,Wunderground v.1.15,2013-11-18 19:44:00,
2013-11-18 13:54:00,58.8,29.0,30.23,WSW,255,2.0,2.0,32,0.00,,,0.00,Wunderground v.1.15,2013-11-18 19:54:00,
2013-11-18 13:59:00,58.5,28.7,30.23,West,276,2.0,2.0,32,0.00,,,0.00,Wunderground v.1.15,2013-11-18 19:59:00,
2013-11-18 14:09:00,58.0,27.5,30.23,WNW,285,4.0,4.0,31,0.00,,,0.00,Wunderground v.1.15,2013-11-18 20:09:00,
2013-11-18 14:19:00,58.1,28.4,30.23,WNW,295,3.0,6.0,32,0.00,,,0.00,Wunderground v.1.15,2013-11-18 20:19:00,
2013-11-18 14:24:00,58.1,28.4,30.23,NW,316,3.0,6.0,32,0.00,,,0.00,Wunderground v.1.15,2013-11-18 20:24:00,
2013-11-18 14:29:00,58.5,29.5,30.23,South,169,2.0,2.0,33,0.00,,,0.00,Wunderground v.1.15,2013-11-18 20:29:00,
2013-11-18 14:34:00,59.1,27.7,30.23,SW,235,1.0,5.0,30,0.00,,,0.00,Wunderground v.1.15,2013-11-18 20:34:00,
2013-11-18 14:44:00,58.5,27.1,30.23,WSW,252,2.0,4.0,30,0.00,,,0.00,Wunderground v.1.15,2013-11-18 20:44:00,
2013-11-18 14:54:00,58.5,26.3,30.23,West,268,2.0,2.0,29,0.00,,,0.00,Wunderground v.1.15,2013-11-18 20:54:00,
2013-11-18 15:04:00,58.2,26.1,30.23,WNW,285,2.0,2.0,29,0.00,,,0.00,Wunderground v.1.15,2013-11-18 21:04:00,
2013-11-18 15:09:00,58.0,25.9,30.23,West,278,2.0,2.0,29,0.00,,,0.00,Wunderground v.1.15,2013-11-18 21:09:00,
2013-11-18 15:19:00,58.2,26.9,30.23,SSE,148,1.0,2.0,30,0.00,,,0.00,Wunderground v.1.15,2013-11-18 21:19:00,
2013-11-18 15:29:00,57.6,25.5,30.23,West,266,1.0,6.0,29,0.00,,,0.00,Wunderground v.1.15,2013-11-18 21:29:00,
2013-11-18 15:39:00,57.2,26.0,30.23,WNW,301,2.0,5.0,30,0.00,,,0.00,Wunderground v.1.15,2013-11-18 21:39:00,
2013-11-18 15:44:00,56.9,26.5,30.23,West,266,2.0,5.0,31,0.00,,,0.00,Wunderground v.1.15,2013-11-18 21:44:00,
2013-11-18 15:49:00,56.7,25.6,30.23,WSW,239,1.0,3.0,30,0.00,,,0.00,Wunderground v.1.15,2013-11-18 21:49:00,
2013-11-18 15:54:00,56.3,25.2,30.23,West,262,1.0,3.0,30,0.00,,,0.00,Wunderground v.1.15,2013-11-18 21:54:00,
2013-11-18 15:59:00,56.0,25.0,30.23,West,269,1.0,1.0,30,0.00,,,0.00,Wunderground v.1.15,2013-11-18 21:59:00,
2013-11-18 16:09:00,55.5,26.8,30.23,NW,322,1.0,1.0,33,0.00,,,0.00,Wunderground v.1.15,2013-11-18 22:09:00,
2013-11-18 16:19:00,54.8,26.2,30.23,NW,321,1.0,2.0,33,0.00,,,0.00,Wunderground v.1.15,2013-11-18 22:19:00,
2013-11-18 16:29:00,54.1,26.3,30.24,WNW,290,0.0,2.0,34,0.00,,,0.00,Wunderground v.1.15,2013-11-18 22:29:00,
2013-11-18 16:34:00,53.9,26.8,30.24,WNW,294,0.0,2.0,35,0.00,,,0.00,Wunderground v.1.15,2013-11-18 22:34:00,
2013-11-18 16:44:00,53.4,26.4,30.24,NW,309,0.0,2.0,35,0.00,,,0.00,Wunderground v.1.15,2013-11-18 22:44:00,
2013-11-18 16:49:00,52.9,26.6,30.23,NW,309,0.0,2.0,36,0.00,,,0.00,Wunderground v.1.15,2013-11-18 22:49:00,
2013-11-18 16:54:00,52.3,26.1,30.23,NW,309,0.0,2.0,36,0.00,,,0.00,Wunderground v.1.15,2013-11-18 22:54:00,
2013-11-18 16:59:00,51.7,29.3,30.23,West,259,0.0,2.0,42,0.00,,,0.00,Wunderground v.1.15,2013-11-18 22:59:00,
2013-11-18 17:09:00,50.6,28.3,30.23,West,259,0.0,2.0,42,0.00,,,0.00,Wunderground v.1.15,2013-11-18 23:09:00,
2013-11-18 17:14:00,50.2,27.4,30.24,West,259,0.0,2.0,41,0.00,,,0.00,Wunderground v.1.15,2013-11-18 23:14:00,
2013-11-18 17:19:00,49.6,26.8,30.24,West,259,0.0,2.0,41,0.00,,,0.00,Wunderground v.1.15,2013-11-18 23:19:00,
2013-11-18 17:29:00,48.5,27.6,30.23,West,259,0.0,2.0,44,0.00,,,0.00,Wunderground v.1.15,2013-11-18 23:29:00,
2013-11-18 17:34:00,48.1,28.8,30.24,West,259,0.0,2.0,47,0.00,,,0.00,Wunderground v.1.15,2013-11-18 23:34:00,
2013-11-18 17:39:00,47.4,29.2,30.24,West,259,0.0,2.0,49,0.00,,,0.00,Wunderground v.1.15,2013-11-18 23:39:00,
2013-11-18 17:49:00,47.0,28.3,30.24,WSW,258,0.0,2.0,48,0.00,,,0.00,Wunderground v.1.15,2013-11-18 23:49:00,
2013-11-18 17:54:00,46.1,28.5,30.24,West,259,0.0,2.0,50,0.00,,,0.00,Wunderground v.1.15,2013-11-18 23:54:00,
2013-11-18 17:59:00,45.4,27.8,30.24,West,259,0.0,2.0,50,0.00,,,0.00,Wunderground v.1.15,2013-11-18 23:59:00,
2013-11-18 18:04:00,44.3,26.8,30.24,West,259,0.0,2.0,50,0.00,,,0.00,Wunderground v.1.15,2013-11-19 00:04:00,
2013-11-18 18:09:00,43.6,27.1,30.25,West,259,0.0,2.0,52,0.00,,,0.00,Wunderground v.1.15,2013-11-19 00:09:00,
2013-11-18 18:14:00,44.2,27.2,30.25,WSW,258,0.0,2.0,51,0.00,,,0.00,Wunderground v.1.15,2013-11-19 00:14:00,
2013-11-18 18:19:00,44.2,27.7,30.25,WSW,258,0.0,2.0,52,0.00,,,0.00,Wunderground v.1.15,2013-11-19 00:19:00,
2013-11-18 18:24:00,43.4,28.3,30.25,West,259,0.0,2.0,55,0.00,,,0.00,Wunderground v.1.15,2013-11-19 00:24:00,
2013-11-18 18:29:00,42.5,28.3,30.25,WSW,258,0.0,2.0,57,0.00,,,0.00,Wunderground v.1.15,2013-11-19 00:29:00,
2013-11-18 18:34:00,41.5,27.4,30.25,WSW,258,0.0,2.0,57,0.00,,,0.00,Wunderground v.1.15,2013-11-19 00:34:00,
2013-11-18 18:39:00,41.0,27.3,30.25,West,259,0.0,2.0,58,0.00,,,0.00,Wunderground v.1.15,2013-11-19 00:39:00,
2013-11-18 18:44:00,40.9,27.2,30.25,WSW,258,0.0,2.0,58,0.00,,,0.00,Wunderground v.1.15,2013-11-19 00:44:00,
2013-11-18 18:54:00,39.7,27.3,30.25,WSW,258,0.0,2.0,61,0.00,,,0.00,Wunderground v.1.15,2013-11-19 00:54:00,
2013-11-18 18:59:00,39.2,26.9,30.25,WSW,258,0.0,2.0,61,0.00,,,0.00,Wunderground v.1.15,2013-11-19 00:59:00,
2013-11-18 19:04:00,38.6,27.1,30.25,West,259,0.0,2.0,63,0.00,,,0.00,Wunderground v.1.15,2013-11-19 01:04:00,
2013-11-18 19:14:00,38.1,28.8,30.26,West,259,0.0,2.0,69,0.00,,,0.00,Wunderground v.1.15,2013-11-19 01:14:00,
2013-11-18 19:24:00,39.7,27.7,30.26,West,259,0.0,2.0,62,0.00,,,0.00,Wunderground v.1.15,2013-11-19 01:24:00,
2013-11-18 19:29:00,39.5,27.9,30.26,West,259,0.0,2.0,63,0.00,,,0.00,Wunderground v.1.15,2013-11-19 01:29:00,
2013-11-18 19:34:00,38.8,28.4,30.26,West,259,0.0,2.0,66,0.00,,,0.00,Wunderground v.1.15,2013-11-19 01:34:00,
2013-11-18 19:39:00,38.4,26.9,30.26,WSW,258,0.0,2.0,63,0.00,,,0.00,Wunderground v.1.15,2013-11-19 01:39:00,
2013-11-18 19:44:00,38.0,26.5,30.27,West,259,0.0,2.0,63,0.00,,,0.00,Wunderground v.1.15,2013-11-19 01:44:00,
2013-11-18 19:49:00,38.0,27.6,30.27,WSW,258,0.0,2.0,66,0.00,,,0.00,Wunderground v.1.15,2013-11-19 01:49:00,
2013-11-18 19:59:00,38.3,28.3,30.27,WSW,258,0.0,2.0,67,0.00,,,0.00,Wunderground v.1.15,2013-11-19 01:59:00,
2013-11-18 20:04:00,38.0,27.6,30.27,West,259,0.0,2.0,66,0.00,,,0.00,Wunderground v.1.15,2013-11-19 02:04:00,
2013-11-18 20:09:00,37.5,27.5,30.27,West,259,0.0,2.0,67,0.00,,,0.00,Wunderground v.1.15,2013-11-19 02:09:00,
2013-11-18 20:14:00,37.5,29.3,30.27,West,259,0.0,2.0,72,0.00,,,0.00,Wunderground v.1.15,2013-11-19 02:14:00,
2013-11-18 20:19:00,37.9,28.3,30.27,West,259,0.0,2.0,68,0.00,,,0.00,Wunderground v.1.15,2013-11-19 02:19:00,
2013-11-18 20:29:00,37.9,27.9,30.28,West,259,0.0,2.0,67,0.00,,,0.00,Wunderground v.1.15,2013-11-19 02:29:00,
2013-11-18 20:34:00,37.6,28.0,30.28,WSW,258,0.0,2.0,68,0.00,,,0.00,Wunderground v.1.15,2013-11-19 02:34:00,
2013-11-18 20:39:00,37.1,27.2,30.27,West,259,0.0,2.0,67,0.00,,,0.00,Wunderground v.1.15,2013-11-19 02:39:00,
2013-11-18 20:44:00,36.5,27.3,30.28,WSW,258,0.0,2.0,69,0.00,,,0.00,Wunderground v.1.15,2013-11-19 02:44:00,
2013-11-18 20:49:00,36.4,27.2,30.28,West,259,0.0,2.0,69,0.00,,,0.00,Wunderground v.1.15,2013-11-19 02:49:00,
2013-11-18 20:59:00,35.3,26.8,30.28,West,259,0.0,2.0,71,0.00,,,0.00,Wunderground v.1.15,2013-11-19 02:59:00,
2013-11-18 21:04:00,34.8,26.7,30.28,West,259,0.0,2.0,72,0.00,,,0.00,Wunderground v.1.15,2013-11-19 03:04:00,
2013-11-18 21:09:00,34.4,27.6,30.28,West,259,0.0,2.0,76,0.00,,,0.00,Wunderground v.1.15,2013-11-19 03:09:00,
2013-11-18 21:14:00,34.3,27.2,30.28,West,259,0.0,2.0,75,0.00,,,0.00,Wunderground v.1.15,2013-11-19 03:14:00,
2013-11-18 21:19:00,34.4,27.3,30.28,WSW,258,0.0,2.0,75,0.00,,,0.00,Wunderground v.1.15,2013-11-19 03:19:00,
2013-11-18 21:29:00,34.1,27.3,30.28,West,259,0.0,2.0,76,0.00,,,0.00,Wunderground v.1.15,2013-11-19 03:29:00,
2013-11-18 21:34:00,33.9,27.1,30.28,WSW,258,0.0,2.0,76,0.00,,,0.00,Wunderground v.1.15,2013-11-19 03:34:00,
2013-11-18 21:39:00,33.5,26.7,30.28,West,259,0.0,2.0,76,0.00,,,0.00,Wunderground v.1.15,2013-11-19 03:39:00,
2013-11-18 21:44:00,33.0,26.3,30.28,West,259,0.0,2.0,76,0.00,,,0.00,Wunderground v.1.15,2013-11-19 03:44:00,
2013-11-18 21:49:00,32.7,27.2,30.28,West,259,0.0,2.0,80,0.00,,,0.00,Wunderground v.1.15,2013-11-19 03:49:00,
2013-11-18 21:54:00,32.8,27.6,30.28,West,259,0.0,2.0,81,0.00,,,0.00,Wunderground v.1.15,2013-11-19 03:54:00,
2013-11-18 22:04:00,34.9,28.1,30.28,West,259,0.0,2.0,76,0.00,,,0.00,Wunderground v.1.15,2013-11-19 04:04:00,
2013-11-18 22:09:00,34.6,27.8,30.28,West,259,0.0,2.0,76,0.00,,,0.00,Wunderground v.1.15,2013-11-19 04:09:00,
2013-11-18 22:14:00,34.1,28.3,30.28,West,259,0.0,2.0,79,0.00,,,0.00,Wunderground v.1.15,2013-11-19 04:14:00,
2013-11-18 22:19:00,33.9,27.8,30.28,West,259,0.0,2.0,78,0.00,,,0.00,Wunderground v.1.15,2013-11-19 04:19:00,
2013-11-18 22:24:00,33.6,28.1,30.28,West,259,0.0,2.0,80,0.00,,,0.00,Wunderground v.1.15,2013-11-19 04:24:00,
2013-11-18 22:34:00,32.9,27.7,30.28,West,259,0.0,2.0,81,0.00,,,0.00,Wunderground v.1.15,2013-11-19 04:34:00,
2013-11-18 22:39:00,33.9,28.1,30.28,West,259,0.0,2.0,79,0.00,,,0.00,Wunderground v.1.15,2013-11-19 04:39:00,
2013-11-18 22:44:00,34.7,28.2,30.28,West,259,0.0,2.0,77,0.00,,,0.00,Wunderground v.1.15,2013-11-19 04:44:00,
2013-11-18 22:49:00,34.4,27.6,30.28,West,259,0.0,2.0,76,0.00,,,0.00,Wunderground v.1.15,2013-11-19 04:49:00,
2013-11-18 22:54:00,33.8,27.4,30.28,West,259,0.0,2.0,77,0.00,,,0.00,Wunderground v.1.15,2013-11-19 04:54:00,
2013-11-18 23:04:00,32.9,27.4,30.28,West,259,0.0,2.0,80,0.00,,,0.00,Wunderground v.1.15,2013-11-19 05:04:00,
2013-11-18 23:09:00,33.0,28.1,30.28,West,259,0.0,2.0,82,0.00,,,0.00,Wunderground v.1.15,2013-11-19 05:09:00,
2013-11-18 23:14:00,33.1,27.0,30.28,West,259,0.0,2.0,78,0.00,,,0.00,Wunderground v.1.15,2013-11-19 05:14:00,
2013-11-18 23:19:00,33.2,27.4,30.28,West,259,0.0,2.0,79,0.00,,,0.00,Wunderground v.1.15,2013-11-19 05:19:00,
2013-11-18 23:24:00,33.1,27.6,30.28,West,259,0.0,2.0,80,0.00,,,0.00,Wunderground v.1.15,2013-11-19 05:24:00,
2013-11-18 23:34:00,32.3,26.8,30.28,West,259,0.0,2.0,80,0.00,,,0.00,Wunderground v.1.15,2013-11-19 05:34:00,
2013-11-18 23:39:00,32.1,26.6,30.28,WSW,258,0.0,2.0,80,0.00,,,0.00,Wunderground v.1.15,2013-11-19 05:39:00,
2013-11-18 23:44:00,32.0,26.8,30.28,West,259,0.0,2.0,81,0.00,,,0.00,Wunderground v.1.15,2013-11-19 05:44:00,
2013-11-18 23:49:00,32.1,27.2,30.28,West,259,0.0,2.0,82,0.00,,,0.00,Wunderground v.1.15,2013-11-19 05:49:00,
2013-11-18 23:54:00,32.3,28.0,30.28,West,259,0.0,2.0,84,0.00,,,0.00,Wunderground v.1.15,2013-11-19 05:54:00,
2013-11-18 23:59:00,32.3,28.3,30.29,West,259,0.0,2.0,85,0.00,,,0.00,Wunderground v.1.15,2013-11-19 05:59:00,